Time;durP1;ratioP1;P1;durP2;ratioP2;P2;SDS_P1;SDS_P2;PMS_P1;PMS_P2;Temp;Humidity;BMP_temperature;BMP_pressure;BME280_temperature;BME280_humidity;BME280_pressure;Samples;Min_cycle;Max_cycle;Signal;HPM_P1;HPM_P2
2023/07/05 00:00:44;;;;;;;12.80;6.67;;;;;;;;;;6197406;28;20022;-91
2023/07/05 00:03:45;;;;;;;20.50;7.47;;;;;;;;;;6197537;28;20033;-91
2023/07/05 00:06:45;;;;;;;13.00;7.00;;;;;;;;;;6197393;28;20511;-91
2023/07/05 00:09:46;;;;;;;14.73;6.63;;;;;;;;;;6192231;28;20492;-91
2023/07/05 00:12:46;;;;;;;15.77;6.30;;;;;;;;;;6191360;28;20489;-91
2023/07/05 00:15:47;;;;;;;16.77;6.83;;;;;;;;;;6214411;28;20058;-90
2023/07/05 00:18:48;;;;;;;17.90;8.00;;;;;;;;;;6189545;28;20469;-90
2023/07/05 00:21:48;;;;;;;13.60;7.97;;;;;;;;;;6181176;28;20022;-91
2023/07/05 00:24:51;;;;;;;14.67;7.83;;;;;;;;;;6200593;28;20444;-90
2023/07/05 00:27:51;;;;;;;15.70;8.20;;;;;;;;;;6179414;28;20018;-88
2023/07/05 00:30:51;;;;;;;14.40;8.07;;;;;;;;;;6197418;28;20371;-88
2023/07/05 00:33:52;;;;;;;16.53;7.97;;;;;;;;;;6178862;28;20101;-88
2023/07/05 00:36:53;;;;;;;13.95;7.82;;;;;;;;;;6178812;28;20033;-88
2023/07/05 00:39:53;;;;;;;14.83;6.97;;;;;;;;;;6183137;28;20564;-90
2023/07/05 00:42:54;;;;;;;16.50;8.03;;;;;;;;;;6196821;28;20026;-89
2023/07/05 00:45:59;;;;;;;16.70;7.28;;;;;;;;;;6179747;28;20516;-90
2023/07/05 00:49:03;;;;;;;17.33;7.70;;;;;;;;;;6179350;28;20018;-90
2023/07/05 00:52:05;;;;;;;15.88;7.50;;;;;;;;;;6190345;28;20074;-89
2023/07/05 00:55:06;;;;;;;14.15;9.07;;;;;;;;;;6196143;28;20022;-90
2023/07/05 00:58:06;;;;;;;16.73;8.30;;;;;;;;;;6176786;28;20022;-89
2023/07/05 01:01:07;;;;;;;17.67;7.90;;;;;;;;;;6196080;28;20018;-89
2023/07/05 01:04:08;;;;;;;13.65;8.10;;;;;;;;;;6191797;28;20017;-90
2023/07/05 01:07:08;;;;;;;12.20;6.77;;;;;;;;;;6198394;28;20022;-89
2023/07/05 01:10:23;;;;;;;13.10;7.03;;;;;;;;;;6195408;28;20017;-90
2023/07/05 01:13:29;;;;;;;13.57;8.95;;;;;;;;;;6177045;28;20069;-89
2023/07/05 01:16:36;;;;;;;15.43;7.30;;;;;;;;;;6189160;28;20644;-90
2023/07/05 01:19:52;;;;;;;21.98;8.68;;;;;;;;;;6178725;28;20481;-90
2023/07/05 01:22:52;;;;;;;16.10;8.00;;;;;;;;;;6196089;28;20014;-90
2023/07/05 01:25:58;;;;;;;20.67;8.20;;;;;;;;;;6195600;28;20029;-89
2023/07/05 01:28:59;;;;;;;14.38;8.25;;;;;;;;;;6195695;28;20019;-89
2023/07/05 01:32:00;;;;;;;13.50;7.27;;;;;;;;;;6192338;28;20137;-92
2023/07/05 01:35:12;;;;;;;13.57;7.67;;;;;;;;;;6206122;28;20081;-91
2023/07/05 01:38:12;;;;;;;15.98;7.70;;;;;;;;;;6217623;28;20026;-91
2023/07/05 01:41:13;;;;;;;16.07;8.97;;;;;;;;;;6221365;28;20014;-92
2023/07/05 01:44:14;;;;;;;12.47;7.23;;;;;;;;;;6205433;28;20056;-92
2023/07/05 01:47:21;;;;;;;18.67;7.37;;;;;;;;;;6221751;28;20018;-92
2023/07/05 01:50:29;;;;;;;13.23;8.32;;;;;;;;;;6221780;28;20022;-92
2023/07/05 01:53:35;;;;;;;16.02;7.47;;;;;;;;;;6202072;28;20026;-92
2023/07/05 01:56:44;;;;;;;15.55;7.15;;;;;;;;;;6197926;28;20028;-92
2023/07/05 01:59:49;;;;;;;16.50;6.97;;;;;;;;;;6195321;28;20023;-91
2023/07/05 02:02:52;;;;;;;12.88;6.60;;;;;;;;;;6194012;28;20042;-93
2023/07/05 02:05:52;;;;;;;15.25;7.30;;;;;;;;;;6209293;28;20022;-91
2023/07/05 02:08:53;;;;;;;11.93;7.70;;;;;;;;;;6210903;28;20457;-92
2023/07/05 02:11:53;;;;;;;18.43;7.63;;;;;;;;;;6201735;28;20018;-92
2023/07/05 02:14:53;;;;;;;16.80;7.60;;;;;;;;;;6212121;28;20007;-91
2023/07/05 02:17:53;;;;;;;14.30;7.73;;;;;;;;;;6195934;28;20010;-91
2023/07/05 02:20:54;;;;;;;14.67;6.97;;;;;;;;;;6192900;28;20023;-91
2023/07/05 02:23:54;;;;;;;16.20;7.63;;;;;;;;;;6185728;28;20011;-91
2023/07/05 02:26:55;;;;;;;17.70;9.23;;;;;;;;;;6192697;28;20033;-91
2023/07/05 02:29:56;;;;;;;17.23;7.97;;;;;;;;;;6210298;28;20031;-91
2023/07/05 02:32:56;;;;;;;17.10;7.90;;;;;;;;;;6218215;28;20006;-91
2023/07/05 02:35:56;;;;;;;15.93;8.33;;;;;;;;;;6200653;28;20274;-91
2023/07/05 02:38:58;;;;;;;15.80;7.83;;;;;;;;;;6200087;28;20057;-91
2023/07/05 02:41:58;;;;;;;13.43;6.70;;;;;;;;;;6214807;28;20046;-92
2023/07/05 02:44:58;;;;;;;15.60;7.20;;;;;;;;;;6197584;28;20481;-91
2023/07/05 02:47:58;;;;;;;20.00;8.93;;;;;;;;;;6214863;28;20065;-91
2023/07/05 02:50:59;;;;;;;15.77;8.53;;;;;;;;;;6199463;28;20025;-91
2023/07/05 02:53:59;;;;;;;16.47;7.73;;;;;;;;;;6200810;28;20010;-92
2023/07/05 02:56:59;;;;;;;18.10;8.00;;;;;;;;;;6204965;28;20016;-92
2023/07/05 02:59:59;;;;;;;17.87;8.13;;;;;;;;;;6219441;28;20014;-92
2023/07/05 03:03:00;;;;;;;17.60;7.73;;;;;;;;;;6202317;28;20018;-92
2023/07/05 03:06:00;;;;;;;17.07;7.77;;;;;;;;;;6222796;28;20027;-92
2023/07/05 03:09:00;;;;;;;18.57;8.53;;;;;;;;;;6215366;28;20018;-92
2023/07/05 03:12:00;;;;;;;14.43;8.97;;;;;;;;;;6204338;28;20014;-92
2023/07/05 03:15:01;;;;;;;19.60;9.23;;;;;;;;;;6204471;28;20015;-92
2023/07/05 03:18:01;;;;;;;22.90;9.23;;;;;;;;;;6220015;28;20021;-93
2023/07/05 03:21:01;;;;;;;21.27;10.10;;;;;;;;;;6223344;28;20006;-92
2023/07/05 03:24:01;;;;;;;17.27;8.83;;;;;;;;;;6208335;28;20018;-92
2023/07/05 03:27:02;;;;;;;14.03;7.43;;;;;;;;;;6205129;28;20086;-92
2023/07/05 03:30:02;;;;;;;16.70;8.60;;;;;;;;;;6203671;28;20046;-92
2023/07/05 03:33:03;;;;;;;16.23;9.07;;;;;;;;;;6222038;28;20022;-93
2023/07/05 03:36:04;;;;;;;14.82;8.45;;;;;;;;;;6227491;28;20295;-93
2023/07/05 03:39:04;;;;;;;16.57;7.90;;;;;;;;;;6209688;28;20014;-92
2023/07/05 03:42:04;;;;;;;21.00;9.93;;;;;;;;;;6233481;28;20014;-92
2023/07/05 03:45:05;;;;;;;20.00;8.60;;;;;;;;;;6208388;28;20034;-92
2023/07/05 03:48:05;;;;;;;14.50;7.50;;;;;;;;;;6222858;28;20121;-92
2023/07/05 03:51:06;;;;;;;12.57;7.93;;;;;;;;;;6216492;28;20025;-90
2023/07/05 03:54:07;;;;;;;20.67;7.83;;;;;;;;;;6215078;28;20026;-90
2023/07/05 03:57:07;;;;;;;17.60;8.90;;;;;;;;;;6220265;28;20022;-89
2023/07/05 04:00:08;;;;;;;17.40;9.13;;;;;;;;;;6197915;28;20026;-87
2023/07/05 04:03:08;;;;;;;16.03;8.17;;;;;;;;;;6180242;28;20030;-86
2023/07/05 04:06:08;;;;;;;19.87;8.80;;;;;;;;;;6198706;28;20035;-87
2023/07/05 04:09:08;;;;;;;17.17;7.77;;;;;;;;;;6197280;28;20113;-87
2023/07/05 04:12:09;;;;;;;13.30;7.90;;;;;;;;;;6188343;28;20109;-86
2023/07/05 04:15:09;;;;;;;19.97;8.63;;;;;;;;;;6185518;28;20032;-88
2023/07/05 04:18:10;;;;;;;19.43;9.30;;;;;;;;;;6201609;28;20023;-88
2023/07/05 04:21:10;;;;;;;19.03;7.90;;;;;;;;;;6181418;28;20059;-88
2023/07/05 04:24:11;;;;;;;14.43;8.17;;;;;;;;;;6199719;28;20098;-87
2023/07/05 04:27:11;;;;;;;20.70;8.27;;;;;;;;;;6182747;28;20500;-88
2023/07/05 04:30:12;;;;;;;15.17;7.33;;;;;;;;;;6184621;28;20104;-88
2023/07/05 04:33:12;;;;;;;13.20;7.27;;;;;;;;;;6196977;28;20034;-88
2023/07/05 04:36:13;;;;;;;15.27;8.60;;;;;;;;;;6180335;28;20026;-88
2023/07/05 04:39:14;;;;;;;15.32;7.82;;;;;;;;;;6193184;28;20027;-88
2023/07/05 04:42:14;;;;;;;16.00;7.87;;;;;;;;;;6197876;28;20469;-88
2023/07/05 04:45:15;;;;;;;15.27;8.40;;;;;;;;;;6179747;28;20026;-88
2023/07/05 04:48:16;;;;;;;16.98;7.60;;;;;;;;;;6196934;28;20030;-88
2023/07/05 04:51:17;;;;;;;17.83;9.77;;;;;;;;;;6194676;28;20019;-89
2023/07/05 04:54:17;;;;;;;19.40;8.27;;;;;;;;;;6195906;28;20121;-88
2023/07/05 04:57:17;;;;;;;13.87;7.67;;;;;;;;;;6177777;28;20051;-89
2023/07/05 05:00:18;;;;;;;15.80;7.33;;;;;;;;;;6200282;28;20022;-92
2023/07/05 05:03:19;;;;;;;9.90;6.70;;;;;;;;;;6220996;28;20010;-92
2023/07/05 05:06:19;;;;;;;;;;;;;;;;;;6224827;28;20026;-92
2023/07/05 05:09:20;;;;;;;13.27;6.03;;;;;;;;;;6228424;28;19913;-92
2023/07/05 05:12:20;;;;;;;11.97;5.83;;;;;;;;;;6205485;28;20021;-92
2023/07/05 05:15:20;;;;;;;11.40;5.63;;;;;;;;;;6206695;28;20026;-93
2023/07/05 05:18:21;;;;;;;10.57;6.10;;;;;;;;;;6206122;28;20022;-92
2023/07/05 05:21:21;;;;;;;13.43;5.83;;;;;;;;;;6225157;28;20027;-93
2023/07/05 05:24:21;;;;;;;13.07;6.27;;;;;;;;;;6195563;28;20042;-92
2023/07/05 05:27:21;;;;;;;10.43;5.60;;;;;;;;;;6222529;28;20053;-94
2023/07/05 05:33:46;;;;;;;15.98;6.80;;;;;;;;;;6004213;22;20045;-82
2023/07/05 05:36:46;;;;;;;;;;;;;;;;;;6265654;28;20093;-86
2023/07/05 05:39:47;;;;;;;8.95;4.90;;;;;;;;;;6264569;28;20632;-87
2023/07/05 05:42:47;;;;;;;11.70;5.63;;;;;;;;;;6256040;28;20021;-83
2023/07/05 05:45:47;;;;;;;12.00;5.83;;;;;;;;;;6258221;28;20751;-83
2023/07/05 05:48:48;;;;;;;13.55;6.32;;;;;;;;;;6256205;28;20067;-84
2023/07/05 05:51:48;;;;;;;14.70;6.27;;;;;;;;;;6254691;28;20041;-87
2023/07/05 05:54:48;;;;;;;13.20;5.75;;;;;;;;;;6258728;28;20017;-86
2023/07/05 05:57:49;;;;;;;13.23;5.88;;;;;;;;;;6251686;28;20096;-86
2023/07/05 06:00:49;;;;;;;10.40;5.77;;;;;;;;;;6262393;28;20087;-83
2023/07/05 06:03:49;;;;;;;8.50;5.13;;;;;;;;;;6246738;28;20157;-88
2023/07/05 06:06:50;;;;;;;12.17;5.30;;;;;;;;;;6248752;28;20020;-87
2023/07/05 06:09:50;;;;;;;9.00;4.70;;;;;;;;;;6248530;28;20376;-88
2023/07/05 06:12:50;;;;;;;8.37;4.47;;;;;;;;;;6245654;28;20025;-88
2023/07/05 06:15:57;;;;;;;10.63;4.40;;;;;;;;;;6242866;28;20498;-87
2023/07/05 06:18:57;;;;;;;10.48;5.10;;;;;;;;;;6230304;28;20396;-87
2023/07/05 06:21:58;;;;;;;11.20;4.60;;;;;;;;;;6247654;28;20020;-85
2023/07/05 06:24:58;;;;;;;8.50;4.53;;;;;;;;;;6251569;28;20066;-85
2023/07/05 06:27:59;;;;;;;8.23;4.80;;;;;;;;;;6215999;28;20023;-87
2023/07/05 06:30:59;;;;;;;;;;;;;;;;;;6247322;28;20017;-86
2023/07/05 06:34:00;;;;;;;9.95;4.75;;;;;;;;;;6222113;28;19976;-85
2023/07/05 06:37:00;;;;;;;11.43;5.03;;;;;;;;;;6231522;28;20022;-86
2023/07/05 06:40:00;;;;;;;;;;;;;;;;;;6216510;28;20092;-86
2023/07/05 06:43:01;;;;;;;15.85;5.20;;;;;;;;;;6211744;28;19920;-87
2023/07/05 06:46:01;;;;;;;;;;;;;;;;;;6234319;28;20030;-86
2023/07/05 06:49:01;;;;;;;9.15;4.82;;;;;;;;;;6220025;28;19909;-89
2023/07/05 06:52:01;;;;;;;;;;;;;;;;;;6222342;28;20021;-86
2023/07/05 06:55:01;;;;;;;11.25;5.40;;;;;;;;;;6226426;28;19909;-85
2023/07/05 06:58:03;;;;;;;;;;;;;;;;;;6235042;28;20022;-86
2023/07/05 07:01:04;;;;;;;11.30;4.88;;;;;;;;;;6230685;28;19916;-86
2023/07/05 07:04:07;;;;;;;9.63;4.20;;;;;;;;;;6225811;28;20033;-76
2023/07/05 07:07:07;;;;;;;7.20;4.05;;;;;;;;;;6224332;28;20025;-75
2023/07/05 07:10:07;;;;;;;7.15;4.38;;;;;;;;;;6218024;28;20045;-75
2023/07/05 07:13:08;;;;;;;8.30;4.40;;;;;;;;;;6222472;28;20022;-74
2023/07/05 07:16:09;;;;;;;9.98;4.82;;;;;;;;;;6220826;28;20427;-75
2023/07/05 07:19:09;;;;;;;6.43;4.05;;;;;;;;;;6222054;28;20018;-74
2023/07/05 07:22:09;;;;;;;;;;;;;;;;;;6221617;28;20021;-74
2023/07/05 07:25:10;;;;;;;9.82;5.00;;;;;;;;;;6221549;28;19996;-75
2023/07/05 07:28:10;;;;;;;;;;;;;;;;;;6222028;28;20679;-75
2023/07/05 07:31:11;;;;;;;7.70;4.32;;;;;;;;;;6204495;28;19905;-75
2023/07/05 07:34:11;;;;;;;8.73;3.85;;;;;;;;;;6236028;28;20032;-75
2023/07/05 07:37:11;;;;;;;;;;;;;;;;;;6246478;28;20472;-75
2023/07/05 07:40:12;;;;;;;7.82;4.38;;;;;;;;;;6245454;28;20494;-75
2023/07/05 07:43:12;;;;;;;;;;;;;;;;;;6244789;28;20072;-75
2023/07/05 07:46:14;;;;;;;9.18;4.28;;;;;;;;;;6240069;28;19956;-74
2023/07/05 07:49:15;;;;;;;6.88;3.85;;;;;;;;;;6245589;28;20017;-73
2023/07/05 07:52:17;;;;;;;10.90;4.83;;;;;;;;;;6246174;28;20496;-73
2023/07/05 07:55:17;;;;;;;6.82;4.45;;;;;;;;;;6245629;28;20025;-74
2023/07/05 07:58:17;;;;;;;8.98;3.92;;;;;;;;;;6240137;28;20108;-75
2023/07/05 08:01:23;;;;;;;7.33;4.10;;;;;;;;;;6244580;28;20480;-75
2023/07/05 08:04:24;;;;;;;8.52;4.20;;;;;;;;;;6241871;28;20029;-75
2023/07/05 08:07:24;;;;;;;9.77;4.17;;;;;;;;;;6225395;28;20404;-76
2023/07/05 08:10:29;;;;;;;7.73;3.33;;;;;;;;;;6244796;28;20021;-76
2023/07/05 08:13:30;;;;;;;12.27;4.97;;;;;;;;;;6242930;28;20025;-76
2023/07/05 08:16:32;;;;;;;8.48;3.75;;;;;;;;;;6224543;28;20029;-76
2023/07/05 08:19:32;;;;;;;10.57;4.50;;;;;;;;;;6245431;28;20125;-75
2023/07/05 08:22:32;;;;;;;9.63;4.00;;;;;;;;;;6223263;28;20017;-74
2023/07/05 08:25:37;;;;;;;8.03;4.23;;;;;;;;;;6246090;28;20137;-75
2023/07/05 08:28:37;;;;;;;9.60;3.85;;;;;;;;;;6222579;28;20017;-75
2023/07/05 08:31:37;;;;;;;11.00;5.05;;;;;;;;;;6237891;28;20104;-75
2023/07/05 08:34:37;;;;;;;8.37;4.77;;;;;;;;;;6226511;28;20105;-86
2023/07/05 08:37:38;;;;;;;7.20;4.15;;;;;;;;;;6248337;28;20014;-79
2023/07/05 08:40:40;;;;;;;10.23;4.63;;;;;;;;;;6232500;28;20033;-83
2023/07/05 08:43:42;;;;;;;11.95;4.22;;;;;;;;;;6240661;28;20523;-87
2023/07/05 08:46:44;;;;;;;13.85;4.95;;;;;;;;;;6207676;28;20034;-87
2023/07/05 08:49:44;;;;;;;9.70;4.72;;;;;;;;;;6206461;28;20030;-85
2023/07/05 08:52:45;;;;;;;9.38;4.22;;;;;;;;;;6227016;28;20026;-86
2023/07/05 08:55:55;;;;;;;7.13;4.30;;;;;;;;;;6223192;28;20029;-83
2023/07/05 08:59:01;;;;;;;8.68;4.60;;;;;;;;;;6226718;28;20392;-89
2023/07/05 09:02:02;;;;;;;8.23;4.32;;;;;;;;;;6204906;28;20060;-89
2023/07/05 09:05:04;;;;;;;8.50;4.53;;;;;;;;;;6223732;28;20583;-88
2023/07/05 09:08:23;;;;;;;8.23;3.75;;;;;;;;;;6226104;28;20107;-83
2023/07/05 09:11:29;;;;;;;6.57;3.85;;;;;;;;;;6216544;28;20033;-88
2023/07/05 09:14:34;;;;;;;7.15;4.50;;;;;;;;;;6225944;28;20034;-85
2023/07/05 09:17:34;;;;;;;10.10;4.03;;;;;;;;;;6217587;28;20034;-84
2023/07/05 09:20:41;;;;;;;8.85;4.43;;;;;;;;;;6233467;28;20033;-85
2023/07/05 09:23:47;;;;;;;9.38;5.00;;;;;;;;;;6225746;28;20564;-82
2023/07/05 09:26:58;;;;;;;7.55;4.05;;;;;;;;;;6239315;28;20021;-81
2023/07/05 09:29:58;;;;;;;7.97;4.37;;;;;;;;;;6245433;28;20053;-79
2023/07/05 09:33:06;;;;;;;7.57;3.63;;;;;;;;;;6246171;28;20289;-78
2023/07/05 09:36:41;;;;;;;8.73;3.70;;;;;;;;;;6239892;28;20038;-88
2023/07/05 09:39:50;;;;;;;6.40;3.72;;;;;;;;;;6220469;28;20026;-86
2023/07/05 09:42:55;;;;;;;10.32;4.63;;;;;;;;;;6219761;28;20325;-87
2023/07/05 09:45:55;;;;;;;12.30;5.10;;;;;;;;;;6222024;28;20401;-86
2023/07/05 09:48:55;;;;;;;5.47;3.85;;;;;;;;;;6215512;28;20022;-84
2023/07/05 09:51:57;;;;;;;7.13;3.80;;;;;;;;;;6216094;28;20451;-87
2023/07/05 09:54:59;;;;;;;6.57;4.13;;;;;;;;;;6199723;28;20022;-85
2023/07/05 09:57:59;;;;;;;5.95;3.38;;;;;;;;;;6217567;28;20025;-86
2023/07/05 10:01:04;;;;;;;5.88;3.67;;;;;;;;;;6216344;28;20026;-86
2023/07/05 10:04:05;;;;;;;6.75;3.88;;;;;;;;;;6222172;28;20084;-89
2023/07/05 10:07:13;;;;;;;9.18;4.35;;;;;;;;;;6215226;28;20026;-84
2023/07/05 10:10:14;;;;;;;8.10;3.90;;;;;;;;;;6228614;28;20018;-88
2023/07/05 10:13:41;;;;;;;6.07;3.47;;;;;;;;;;6225876;28;20408;-84
2023/07/05 10:16:58;;;;;;;5.97;3.85;;;;;;;;;;6218809;28;20131;-86
2023/07/05 10:19:59;;;;;;;7.15;4.10;;;;;;;;;;6220054;28;20030;-86
2023/07/05 10:23:06;;;;;;;8.93;4.43;;;;;;;;;;6211495;28;20084;-86
2023/07/05 10:26:06;;;;;;;8.02;4.32;;;;;;;;;;6226074;28;20037;-84
2023/07/05 10:29:10;;;;;;;8.27;4.13;;;;;;;;;;6226017;28;20014;-80
2023/07/05 10:32:16;;;;;;;5.07;3.75;;;;;;;;;;6241310;28;20100;-83
2023/07/05 10:35:23;;;;;;;7.70;3.70;;;;;;;;;;6234804;28;20026;-85
2023/07/05 10:38:26;;;;;;;6.90;4.25;;;;;;;;;;6240961;28;20018;-84
2023/07/05 10:41:31;;;;;;;14.20;4.88;;;;;;;;;;6243886;28;20044;-86
2023/07/05 10:44:34;;;;;;;6.30;3.53;;;;;;;;;;6217189;28;20044;-84
2023/07/05 10:47:36;;;;;;;5.07;3.45;;;;;;;;;;6230505;28;20061;-82
2023/07/05 10:50:37;;;;;;;6.43;4.10;;;;;;;;;;6234370;28;20017;-86
2023/07/05 10:53:37;;;;;;;6.93;3.35;;;;;;;;;;6229369;28;20088;-86
2023/07/05 10:56:39;;;;;;;4.60;3.03;;;;;;;;;;6229869;28;20468;-87
2023/07/05 10:59:43;;;;;;;5.93;3.42;;;;;;;;;;6234992;28;20033;-83
2023/07/05 11:02:56;;;;;;;9.43;4.10;;;;;;;;;;6234925;28;20022;-86
2023/07/05 11:05:58;;;;;;;7.20;3.40;;;;;;;;;;6228587;28;20508;-87
2023/07/05 11:08:58;;;;;;;6.47;3.30;;;;;;;;;;6233201;28;20058;-87
2023/07/05 11:12:00;;;;;;;5.33;3.20;;;;;;;;;;6235662;28;20125;-86
2023/07/05 11:15:01;;;;;;;4.95;2.90;;;;;;;;;;6232707;28;20022;-86
2023/07/05 11:18:01;;;;;;;4.57;2.70;;;;;;;;;;6242997;28;20439;-82
2023/07/05 11:21:02;;;;;;;4.47;2.63;;;;;;;;;;6239979;28;20056;-87
2023/07/05 11:24:04;;;;;;;6.25;3.33;;;;;;;;;;6240892;28;20252;-86
2023/07/05 11:27:23;;;;;;;5.18;2.80;;;;;;;;;;6242848;28;20052;-85
2023/07/05 11:30:39;;;;;;;4.18;2.65;;;;;;;;;;6247657;28;20100;-85
2023/07/05 11:33:39;;;;;;;3.80;2.78;;;;;;;;;;6269067;28;20041;-81
2023/07/05 11:36:40;;;;;;;4.63;3.03;;;;;;;;;;6247138;28;20032;-77
2023/07/05 11:39:43;;;;;;;5.97;3.20;;;;;;;;;;6273401;28;20005;-80
2023/07/05 11:42:44;;;;;;;5.60;2.90;;;;;;;;;;6269186;28;20009;-81
2023/07/05 11:45:46;;;;;;;6.93;3.58;;;;;;;;;;6265031;28;20052;-84
2023/07/05 11:48:46;;;;;;;7.05;3.78;;;;;;;;;;6267210;28;20049;-86
2023/07/05 11:52:01;;;;;;;7.17;3.90;;;;;;;;;;6265780;28;20049;-80
2023/07/05 11:55:13;;;;;;;8.65;3.25;;;;;;;;;;6261875;28;20017;-86
2023/07/05 11:58:18;;;;;;;10.98;3.67;;;;;;;;;;6253642;28;20014;-87
2023/07/05 12:01:24;;;;;;;5.82;2.88;;;;;;;;;;6263898;28;20036;-83
2023/07/05 12:04:25;;;;;;;8.50;3.42;;;;;;;;;;6261876;28;20032;-87
2023/07/05 12:07:26;;;;;;;5.25;3.33;;;;;;;;;;6267353;28;20009;-82
2023/07/05 12:10:28;;;;;;;6.07;3.45;;;;;;;;;;6258668;28;20101;-85
2023/07/05 12:13:32;;;;;;;7.63;3.92;;;;;;;;;;6255763;28;20030;-87
2023/07/05 12:16:34;;;;;;;7.70;3.70;;;;;;;;;;6250788;28;20029;-77
2023/07/05 12:19:34;;;;;;;7.57;4.03;;;;;;;;;;6261196;28;20026;-82
2023/07/05 12:22:35;;;;;;;8.10;3.30;;;;;;;;;;6258557;28;20048;-85
2023/07/05 12:25:36;;;;;;;9.52;3.20;;;;;;;;;;6253917;28;20030;-84
2023/07/05 12:28:42;;;;;;;7.07;3.17;;;;;;;;;;6256490;28;20024;-84
2023/07/05 12:31:43;;;;;;;7.22;3.72;;;;;;;;;;6256411;28;20655;-86
2023/07/05 12:34:44;;;;;;;8.25;4.22;;;;;;;;;;6244469;28;20018;-86
2023/07/05 12:37:45;;;;;;;5.70;3.92;;;;;;;;;;6253028;28;20116;-86
2023/07/05 12:40:50;;;;;;;8.77;3.38;;;;;;;;;;6240212;28;20076;-81
2023/07/05 12:44:01;;;;;;;6.97;3.97;;;;;;;;;;6251468;28;20028;-87
2023/07/05 12:47:11;;;;;;;5.68;3.38;;;;;;;;;;6254035;28;20034;-81
2023/07/05 12:50:11;;;;;;;7.65;4.00;;;;;;;;;;6253129;28;20089;-84
2023/07/05 12:53:18;;;;;;;6.47;3.53;;;;;;;;;;6246329;28;20020;-85
2023/07/05 12:56:20;;;;;;;9.25;4.47;;;;;;;;;;6250873;28;20025;-86
2023/07/05 12:59:31;;;;;;;6.13;3.63;;;;;;;;;;6238507;28;20034;-83
2023/07/05 13:02:32;;;;;;;7.35;4.05;;;;;;;;;;6246279;28;20029;-80
2023/07/05 13:05:33;;;;;;;7.93;3.95;;;;;;;;;;6246698;28;20029;-85
2023/07/05 13:08:33;;;;;;;6.35;3.80;;;;;;;;;;6249605;28;20376;-84
2023/07/05 13:11:34;;;;;;;4.88;3.35;;;;;;;;;;6249646;28;20096;-84
2023/07/05 13:14:36;;;;;;;6.72;3.40;;;;;;;;;;6260038;28;20024;-82
2023/07/05 13:17:36;;;;;;;8.18;3.70;;;;;;;;;;6256427;28;20041;-81
2023/07/05 13:20:36;;;;;;;7.10;3.70;;;;;;;;;;6247661;28;20104;-86
2023/07/05 13:23:43;;;;;;;6.80;3.30;;;;;;;;;;6245696;28;20048;-76
2023/07/05 13:26:44;;;;;;;6.45;3.67;;;;;;;;;;6241376;28;20408;-76
2023/07/05 13:29:44;;;;;;;6.40;4.00;;;;;;;;;;6242935;28;20022;-76
2023/07/05 13:32:47;;;;;;;6.60;3.70;;;;;;;;;;6249481;28;20319;-84
2023/07/05 13:35:47;;;;;;;5.88;3.60;;;;;;;;;;6260660;28;20260;-82
2023/07/05 13:38:47;;;;;;;9.27;4.45;;;;;;;;;;6252003;28;20052;-82
2023/07/05 13:41:51;;;;;;;9.38;3.30;;;;;;;;;;6257185;28;20450;-82
2023/07/05 13:44:51;;;;;;;6.20;3.55;;;;;;;;;;6242626;28;20002;-78
2023/07/05 13:47:52;;;;;;;7.97;4.25;;;;;;;;;;6260159;23;20061;-87
2023/07/05 13:50:52;;;;;;;5.63;3.78;;;;;;;;;;6225852;28;20028;-85
2023/07/05 13:53:54;;;;;;;6.88;3.97;;;;;;;;;;6221085;28;20026;-84
2023/07/05 13:56:56;;;;;;;6.80;3.83;;;;;;;;;;6220377;28;20404;-84
2023/07/05 13:59:57;;;;;;;5.00;3.05;;;;;;;;;;6220602;28;20034;-84
2023/07/05 14:02:58;;;;;;;11.63;4.03;;;;;;;;;;6228244;28;20017;-85
2023/07/05 14:05:58;;;;;;;7.10;3.90;;;;;;;;;;6225195;28;20033;-85
2023/07/05 14:08:59;;;;;;;6.05;4.20;;;;;;;;;;6228269;28;20495;-86
2023/07/05 14:11:59;;;;;;;9.50;4.30;;;;;;;;;;6212524;28;20032;-84
2023/07/05 14:14:59;;;;;;;6.10;3.78;;;;;;;;;;6216686;28;20033;-83
2023/07/05 14:18:00;;;;;;;6.15;3.97;;;;;;;;;;6214540;28;20022;-85
2023/07/05 14:21:00;;;;;;;8.02;4.55;;;;;;;;;;6219026;28;20022;-84
2023/07/05 14:24:04;;;;;;;7.87;4.77;;;;;;;;;;6218904;28;20022;-85
2023/07/05 14:27:05;;;;;;;12.05;4.53;;;;;;;;;;6218606;28;20031;-85
2023/07/05 14:30:05;;;;;;;8.80;3.93;;;;;;;;;;6224334;28;20530;-90
2023/07/05 14:33:06;;;;;;;9.80;4.30;;;;;;;;;;6230205;28;20253;-90
2023/07/05 14:36:10;;;;;;;8.03;4.67;;;;;;;;;;6222184;28;20029;-90
2023/07/05 14:39:10;;;;;;;10.55;5.00;;;;;;;;;;6230300;28;20264;-91
2023/07/05 14:42:12;;;;;;;8.73;4.17;;;;;;;;;;6229505;28;20730;-90
2023/07/05 14:45:17;;;;;;;11.77;4.93;;;;;;;;;;6223532;28;20272;-92
2023/07/05 14:48:17;;;;;;;9.57;3.92;;;;;;;;;;6221938;28;20042;-89
2023/07/05 14:51:24;;;;;;;6.10;4.13;;;;;;;;;;6204000;28;20581;-90
2023/07/05 14:54:24;;;;;;;7.45;3.78;;;;;;;;;;6205980;28;20029;-90
2023/07/05 14:57:24;;;;;;;6.83;3.90;;;;;;;;;;6203662;28;20026;-90
2023/07/05 15:00:27;;;;;;;8.47;4.77;;;;;;;;;;6203220;28;20034;-91
2023/07/05 15:03:29;;;;;;;4.80;2.58;;;;;;;;;;6202557;28;20053;-90
2023/07/05 15:06:30;;;;;;;10.57;4.45;;;;;;;;;;6184815;28;20037;-90
2023/07/05 15:09:30;;;;;;;;;;;;;;;;;;6201601;28;20023;-92
2023/07/05 15:12:30;;;;;;;10.48;4.15;;;;;;;;;;6202756;28;19906;-89
2023/07/05 15:15:30;;;;;;;;;;;;;;;;;;6214771;28;20053;-90
2023/07/05 15:18:31;;;;;;;10.02;5.03;;;;;;;;;;6248194;23;19920;-81
2023/07/05 15:21:31;;;;;;;;;;;;;;;;;;6230461;28;20022;-80
2023/07/05 15:24:33;;;;;;;8.68;3.70;;;;;;;;;;6250783;28;19980;-83
2023/07/05 15:27:33;;;;;;;;;;;;;;;;;;6247717;28;20084;-83
2023/07/05 15:30:34;;;;;;;8.57;4.93;;;;;;;;;;6246176;28;19909;-85
2023/07/05 15:33:37;;;;;;;9.45;4.00;;;;;;;;;;6255085;28;20045;-86
2023/07/05 15:36:37;;;;;;;10.63;3.80;;;;;;;;;;6260768;28;20084;-84
2023/07/05 15:39:37;;;;;;;8.03;4.10;;;;;;;;;;6250325;28;20018;-82
2023/07/05 15:42:37;;;;;;;9.40;3.90;;;;;;;;;;6248597;28;20403;-80
2023/07/05 15:45:38;;;;;;;11.80;4.70;;;;;;;;;;6252183;28;20064;-85
2023/07/05 15:48:40;;;;;;;15.30;5.63;;;;;;;;;;6247034;28;20052;-87
2023/07/05 15:51:40;;;;;;;17.00;6.93;;;;;;;;;;6248236;28;20013;-86
2023/07/05 15:54:40;;;;;;;16.47;7.70;;;;;;;;;;6249062;28;20025;-86
2023/07/05 15:57:41;;;;;;;14.53;5.70;;;;;;;;;;6256453;28;20112;-82
2023/07/05 16:00:43;;;;;;;11.68;4.75;;;;;;;;;;6263750;28;20044;-88
2023/07/05 16:03:43;;;;;;;13.18;5.15;;;;;;;;;;6266997;28;20048;-82
2023/07/05 16:06:43;;;;;;;10.10;5.27;;;;;;;;;;6257017;28;20025;-84
2023/07/05 16:09:43;;;;;;;;;;;;;;;;;;6266174;28;20021;-86
2023/07/05 16:12:44;;;;;;;11.57;5.50;;;;;;;;;;6260675;28;19917;-85
2023/07/05 16:15:53;;;;;;;17.23;6.25;;;;;;;;;;6248338;28;20021;-87
2023/07/05 16:18:53;;;;;;;17.33;8.18;;;;;;;;;;6246862;28;20060;-80
2023/07/05 16:21:55;;;;;;;14.63;5.83;;;;;;;;;;6238700;28;20038;-80
2023/07/05 16:24:55;;;;;;;13.60;5.35;;;;;;;;;;6237417;28;20078;-83
2023/07/05 16:27:55;;;;;;;13.17;5.93;;;;;;;;;;6247588;28;20061;-87
2023/07/05 16:31:00;;;;;;;16.67;6.80;;;;;;;;;;6233489;28;20072;-83
2023/07/05 16:34:01;;;;;;;26.13;11.55;;;;;;;;;;6215306;28;20017;-87
2023/07/05 16:37:01;;;;;;;21.00;10.90;;;;;;;;;;6240462;28;20121;-85
2023/07/05 16:40:02;;;;;;;;;;;;;;;;;;6239095;28;20061;-85
2023/07/05 16:43:02;;;;;;;27.48;12.73;;;;;;;;;;6238327;28;19963;-87
2023/07/05 16:46:02;;;;;;;;;;;;;;;;;;6241861;28;20041;-84
2023/07/05 16:49:02;;;;;;;21.98;9.57;;;;;;;;;;6240671;28;19916;-84
2023/07/05 16:52:03;;;;;;;17.05;8.30;;;;;;;;;;6244703;28;20080;-81
2023/07/05 16:55:03;;;;;;;16.97;5.83;;;;;;;;;;6216918;28;20511;-83
2023/07/05 16:58:03;;;;;;;17.17;5.65;;;;;;;;;;6238971;28;20244;-78
2023/07/05 17:01:08;;;;;;;15.57;7.70;;;;;;;;;;6233670;28;20052;-84
2023/07/05 17:04:08;;;;;;;9.00;5.00;;;;;;;;;;6235228;28;20033;-84
2023/07/05 17:07:08;;;;;;;12.17;5.17;;;;;;;;;;6233139;28;20018;-87
2023/07/05 17:10:10;;;;;;;9.80;5.53;;;;;;;;;;6234506;28;20018;-88
2023/07/05 17:13:10;;;;;;;13.30;5.85;;;;;;;;;;6238024;28;20045;-87
2023/07/05 17:16:10;;;;;;;13.03;5.77;;;;;;;;;;6241930;28;20026;-89
2023/07/05 17:19:10;;;;;;;10.53;5.60;;;;;;;;;;6223572;28;20046;-87
2023/07/05 17:22:11;;;;;;;10.50;4.97;;;;;;;;;;6214515;28;21277;-79
2023/07/05 17:25:11;;;;;;;11.57;5.80;;;;;;;;;;6195716;28;20408;-82
2023/07/05 17:28:12;;;;;;;8.83;5.33;;;;;;;;;;6217521;28;20018;-81
2023/07/05 17:31:14;;;;;;;13.73;5.70;;;;;;;;;;6216767;28;20099;-83
2023/07/05 17:34:16;;;;;;;12.23;6.68;;;;;;;;;;6212118;28;20021;-76
2023/07/05 17:37:16;;;;;;;15.93;7.50;;;;;;;;;;6218666;28;20561;-75
2023/07/05 17:40:16;;;;;;;16.63;7.35;;;;;;;;;;6222454;28;20018;-75
2023/07/05 17:43:17;;;;;;;17.43;8.57;;;;;;;;;;6215935;28;20383;-75
2023/07/05 17:46:28;;;;;;;13.27;7.07;;;;;;;;;;6214747;28;20022;-75
2023/07/05 17:49:28;;;;;;;14.77;7.65;;;;;;;;;;6217164;28;20023;-77
2023/07/05 17:52:31;;;;;;;11.37;7.10;;;;;;;;;;6217594;28;20432;-76
2023/07/05 17:55:32;;;;;;;11.43;6.05;;;;;;;;;;6218696;28;20028;-75
2023/07/05 17:58:32;;;;;;;14.10;6.80;;;;;;;;;;6219153;28;20014;-75
2023/07/05 18:01:32;;;;;;;11.00;7.07;;;;;;;;;;6218281;28;20249;-74
2023/07/05 18:04:32;;;;;;;16.50;7.17;;;;;;;;;;6216894;28;20016;-76
2023/07/05 18:07:32;;;;;;;13.47;8.03;;;;;;;;;;6218726;28;20021;-74
2023/07/05 18:10:33;;;;;;;11.23;7.33;;;;;;;;;;6218624;28;20528;-74